createdAt,value
2022-12-23T00:00:57.330Z,9.34
2022-12-23T00:03:24.485Z,9.37
2022-12-23T00:05:51.754Z,9.35
2022-12-23T00:08:19.065Z,9.35
2022-12-23T00:10:48.124Z,9.33
2022-12-23T00:13:33.114Z,9.33
2022-12-23T00:16:11.873Z,9.34
2022-12-23T00:18:39.304Z,9.34
2022-12-23T00:21:12.865Z,9.30
2022-12-23T00:23:41.765Z,9.32
2022-12-23T00:26:14.056Z,9.34
2022-12-23T00:28:40.766Z,9.34
2022-12-23T00:31:08.335Z,9.33
2022-12-23T00:33:38.040Z,9.37
2022-12-23T00:36:19.312Z,9.37
2022-12-23T00:39:04.566Z,9.37
2022-12-23T00:41:50.541Z,9.40
2022-12-23T00:44:17.329Z,9.41
2022-12-23T00:46:44.233Z,9.40
2022-12-23T00:49:34.723Z,9.38
2022-12-23T00:52:02.232Z,9.37
2022-12-23T00:54:29.503Z,9.36
2022-12-23T00:56:55.961Z,9.38
2022-12-23T00:59:22.720Z,9.38
2022-12-23T01:02:08.391Z,9.37
2022-12-23T01:04:54.641Z,9.40
2022-12-23T01:07:22.182Z,9.39
2022-12-23T01:09:48.665Z,9.41
2022-12-23T01:12:15.384Z,9.40
2022-12-23T01:14:41.874Z,9.42
2022-12-23T01:17:09.054Z,9.43
2022-12-23T01:19:35.788Z,9.46
2022-12-23T01:22:02.718Z,9.44
2022-12-23T01:24:30.810Z,9.44
2022-12-23T01:26:57.769Z,9.44
2022-12-23T01:29:24.775Z,9.51
2022-12-23T01:35:02.214Z,9.44
2022-12-23T01:37:48.638Z,9.45
2022-12-23T01:40:36.899Z,9.49
2022-12-23T01:43:41.895Z,9.52
2022-12-23T01:46:28.789Z,9.53
2022-12-23T01:49:15.469Z,9.54
2022-12-23T01:51:43.131Z,9.58
2022-12-23T01:54:09.618Z,9.57
2022-12-23T01:56:39.759Z,9.57
2022-12-23T01:59:11.885Z,9.59
2022-12-23T02:01:57.055Z,9.60
2022-12-23T02:04:26.195Z,9.59
2022-12-23T02:07:11.593Z,9.62
2022-12-23T02:09:40.349Z,9.66
2022-12-23T02:13:05.828Z,9.67
2022-12-23T02:16:09.686Z,9.70
2022-12-23T02:18:45.026Z,9.68
2022-12-23T02:21:30.849Z,9.69
2022-12-23T02:24:18.045Z,9.74
2022-12-23T02:27:05.262Z,9.76
2022-12-23T02:29:40.863Z,9.72
2022-12-23T02:32:26.961Z,9.76
2022-12-23T02:35:10.847Z,9.74
2022-12-23T02:38:00.294Z,9.78
2022-12-23T02:40:39.397Z,9.77
2022-12-23T02:43:34.849Z,9.79
2022-12-23T02:46:33.449Z,9.84
2022-12-23T02:49:23.675Z,9.83
2022-12-23T02:51:54.626Z,9.91
2022-12-23T02:54:30.938Z,9.88
2022-12-23T02:57:01.549Z,9.87
2022-12-23T02:59:34.302Z,9.96
2022-12-23T03:02:01.767Z,9.93
2022-12-23T03:04:28.675Z,9.95
2022-12-23T03:06:57.119Z,9.95
2022-12-23T03:09:48.492Z,10.00
2022-12-23T03:12:46.437Z,9.97
2022-12-23T03:15:22.331Z,9.99
2022-12-23T03:18:25.620Z,9.97
2022-12-23T03:21:08.226Z,9.93
2022-12-23T03:23:53.635Z,9.98
2022-12-23T03:26:38.924Z,9.96
2022-12-23T03:29:13.338Z,9.99
2022-12-23T03:31:41.347Z,10.01
2022-12-23T03:34:16.743Z,9.97
2022-12-23T03:36:52.960Z,9.98
2022-12-23T03:39:24.417Z,10.02
2022-12-23T03:41:57.826Z,9.95
2022-12-23T03:44:30.007Z,9.95
2022-12-23T03:47:18.947Z,9.98
2022-12-23T03:49:53.973Z,9.96
2022-12-23T03:52:27.386Z,9.98
2022-12-23T03:54:56.058Z,9.94
2022-12-23T03:57:28.710Z,9.96
2022-12-23T03:59:55.998Z,9.96
2022-12-23T04:02:47.399Z,9.98
2022-12-23T04:05:26.098Z,9.98
2022-12-23T04:08:07.733Z,9.98
2022-12-23T04:10:35.347Z,9.91
2022-12-23T04:13:02.016Z,9.97
2022-12-23T04:15:28.762Z,9.97
2022-12-23T04:17:58.109Z,9.96
2022-12-23T04:20:24.826Z,9.93
2022-12-23T04:22:51.828Z,9.98
2022-12-23T04:25:18.887Z,9.99
2022-12-23T04:27:45.597Z,9.96
2022-12-23T04:30:13.788Z,9.92
2022-12-23T04:32:42.052Z,9.90
2022-12-23T04:35:09.798Z,9.88
2022-12-23T04:37:36.679Z,9.92
2022-12-23T04:40:04.572Z,9.94
2022-12-23T04:42:31.272Z,9.89
2022-12-23T04:44:58.601Z,9.93
2022-12-23T04:47:25.103Z,9.98
2022-12-23T04:49:54.659Z,9.94
2022-12-23T04:52:21.303Z,9.96
2022-12-23T04:54:48.004Z,9.95
2022-12-23T04:57:15.840Z,9.94
2022-12-23T04:59:42.693Z,10.00
2022-12-23T05:02:09.668Z,9.96
2022-12-23T05:04:36.539Z,9.94
2022-12-23T05:07:03.129Z,9.93
2022-12-23T05:09:29.863Z,9.94
2022-12-23T05:11:56.274Z,9.95
2022-12-23T05:14:23.413Z,9.95
2022-12-23T05:16:50.169Z,9.97
2022-12-23T05:19:17.056Z,9.89
2022-12-23T05:21:43.549Z,9.94
2022-12-23T05:24:10.279Z,9.91
2022-12-23T05:26:36.986Z,9.93
2022-12-23T05:29:03.553Z,9.93
2022-12-23T05:31:30.158Z,9.89
2022-12-23T05:34:04.098Z,9.85
2022-12-23T05:36:33.181Z,9.82
2022-12-23T05:38:59.967Z,9.84
2022-12-23T05:41:26.585Z,9.87
2022-12-23T05:43:53.177Z,9.86
2022-12-23T05:46:26.286Z,9.85
2022-12-23T05:48:53.405Z,9.86
2022-12-23T05:51:20.097Z,9.85
2022-12-23T05:53:46.773Z,9.94
2022-12-23T05:56:13.273Z,9.92
2022-12-23T05:58:39.884Z,9.90
2022-12-23T06:01:07.698Z,9.88
2022-12-23T06:03:34.570Z,9.93
2022-12-23T06:06:01.468Z,9.91
2022-12-23T06:08:27.911Z,9.88
2022-12-23T06:10:54.682Z,9.89
2022-12-23T06:13:21.238Z,9.88
2022-12-23T06:15:48.248Z,9.86
2022-12-23T06:18:15.072Z,9.93
2022-12-23T06:20:41.550Z,9.92
2022-12-23T06:23:08.042Z,9.90
2022-12-23T06:25:34.732Z,9.92
2022-12-23T06:28:01.742Z,9.93
2022-12-23T06:30:28.458Z,9.93
2022-12-23T06:32:54.859Z,9.95
2022-12-23T06:35:21.588Z,10.00
2022-12-23T06:37:48.185Z,9.99
2022-12-23T06:40:14.980Z,9.97
2022-12-23T06:42:41.922Z,9.95
2022-12-23T06:45:09.075Z,9.97
2022-12-23T06:47:35.589Z,10.01
2022-12-23T06:50:03.981Z,10.00
2022-12-23T06:52:30.641Z,10.00
2022-12-23T06:54:57.309Z,10.07
2022-12-23T06:57:24.406Z,10.04
2022-12-23T06:59:50.883Z,10.02
2022-12-23T07:02:17.667Z,10.00
2022-12-23T07:04:44.295Z,10.02
2022-12-23T07:07:10.731Z,10.03
2022-12-23T07:09:37.383Z,10.03
2022-12-23T07:12:04.128Z,10.04
2022-12-23T07:14:30.814Z,10.01
2022-12-23T07:16:57.374Z,9.99
2022-12-23T07:19:24.263Z,9.97
2022-12-23T07:21:50.777Z,10.00
2022-12-23T07:24:17.207Z,10.08
2022-12-23T07:26:43.637Z,10.04
2022-12-23T07:29:10.077Z,10.03
2022-12-23T07:31:40.790Z,10.04
2022-12-23T07:34:08.276Z,10.05
2022-12-23T07:36:35.468Z,10.08
2022-12-23T07:39:01.971Z,10.04
2022-12-23T07:41:28.442Z,10.07
2022-12-23T07:43:59.556Z,10.08
2022-12-23T07:46:26.165Z,10.13
2022-12-23T07:48:52.982Z,10.12
2022-12-23T07:51:19.842Z,10.15
2022-12-23T07:53:50.547Z,10.15
2022-12-23T07:56:18.377Z,10.15
2022-12-23T07:58:49.227Z,10.12
2022-12-23T08:01:16.365Z,10.11
2022-12-23T08:03:43.032Z,10.12
2022-12-23T08:06:14.924Z,10.11
2022-12-23T08:08:44.170Z,10.08
2022-12-23T08:11:12.856Z,10.05
2022-12-23T08:13:41.452Z,10.06
2022-12-23T08:16:08.517Z,10.06
2022-12-23T08:18:36.991Z,10.09
2022-12-23T08:21:05.822Z,10.04
2022-12-23T08:23:33.101Z,10.05
2022-12-23T08:26:21.538Z,10.03
2022-12-23T08:28:49.683Z,10.04
2022-12-23T08:31:25.216Z,10.08
2022-12-23T08:33:54.447Z,10.08
2022-12-23T08:36:23.913Z,10.04
2022-12-23T08:38:53.969Z,10.09
2022-12-23T08:41:23.665Z,10.10
2022-12-23T08:43:50.554Z,10.09
2022-12-23T08:46:18.199Z,10.15
2022-12-23T08:48:49.080Z,10.19
2022-12-23T08:51:18.738Z,10.22
2022-12-23T08:53:46.603Z,10.28
2022-12-23T08:56:16.511Z,10.33
2022-12-23T08:58:45.669Z,10.35
2022-12-23T09:01:15.277Z,10.38
2022-12-23T09:03:42.445Z,10.42
2022-12-23T09:06:21.879Z,10.41
2022-12-23T09:08:53.287Z,10.43
2022-12-23T09:11:23.038Z,10.47
2022-12-23T09:13:49.909Z,10.48
2022-12-23T09:16:17.064Z,10.53
2022-12-23T09:18:43.692Z,10.48
2022-12-23T09:21:13.873Z,10.44
2022-12-23T09:23:40.721Z,10.49
2022-12-23T09:26:09.449Z,10.50
2022-12-23T09:28:36.322Z,10.48
2022-12-23T09:31:11.170Z,10.49
2022-12-23T09:33:38.492Z,10.49
2022-12-23T09:36:05.871Z,10.51
2022-12-23T09:38:33.077Z,10.51
2022-12-23T09:41:21.758Z,10.51
2022-12-23T09:44:22.434Z,10.47
2022-12-23T09:46:57.287Z,10.52
2022-12-23T09:49:24.277Z,10.57
2022-12-23T09:51:55.867Z,10.54
2022-12-23T09:54:26.707Z,10.58
2022-12-23T09:57:13.259Z,10.60
2022-12-23T09:59:48.871Z,10.64
2022-12-23T10:02:36.957Z,10.65
2022-12-23T10:05:12.471Z,10.67
2022-12-23T10:07:46.847Z,10.72
2022-12-23T10:10:25.537Z,10.73
2022-12-23T10:12:53.967Z,10.77
2022-12-23T10:15:42.904Z,10.80
2022-12-23T10:18:20.932Z,10.79
2022-12-23T10:20:52.578Z,10.80
2022-12-23T10:23:29.132Z,10.81
2022-12-23T10:25:55.651Z,10.85
2022-12-23T10:28:23.090Z,10.86
2022-12-23T10:34:01.850Z,10.90
2022-12-23T10:36:33.513Z,10.90
2022-12-23T10:39:18.195Z,10.94
2022-12-23T10:42:16.715Z,10.95
2022-12-23T10:44:58.531Z,10.87
2022-12-23T10:47:51.732Z,10.94
2022-12-23T10:50:35.001Z,10.93
2022-12-23T10:53:04.647Z,10.97
2022-12-23T10:55:35.440Z,10.98
2022-12-23T10:58:07.870Z,10.98
2022-12-23T11:00:38.900Z,10.99
2022-12-23T11:03:20.251Z,11.01
2022-12-23T11:05:50.686Z,10.99
2022-12-23T11:08:18.337Z,10.97
2022-12-23T11:10:45.738Z,10.98
2022-12-23T11:13:24.543Z,10.96
2022-12-23T11:15:52.395Z,10.96
2022-12-23T11:18:21.503Z,11.00
2022-12-23T11:21:06.042Z,10.95
2022-12-23T11:23:35.767Z,10.94
2022-12-23T11:26:07.617Z,10.98
2022-12-23T11:28:38.396Z,10.95
2022-12-23T11:31:12.037Z,10.95
2022-12-23T11:33:45.371Z,10.93
2022-12-23T11:36:23.680Z,10.96
2022-12-23T11:39:03.896Z,10.99
2022-12-23T11:41:36.465Z,10.92
2022-12-23T11:44:17.614Z,10.96
2022-12-23T11:46:44.384Z,10.93
2022-12-23T11:49:19.406Z,10.97
2022-12-23T11:51:58.933Z,10.98
2022-12-23T11:54:25.539Z,10.98
2022-12-23T11:56:53.547Z,10.95
2022-12-23T11:59:40.662Z,10.94
2022-12-23T12:02:26.978Z,10.95
2022-12-23T12:05:01.657Z,10.90
2022-12-23T12:07:30.280Z,10.86
2022-12-23T12:10:00.307Z,10.91
2022-12-23T12:12:28.250Z,10.89
2022-12-23T12:14:57.476Z,10.98
2022-12-23T12:17:37.652Z,10.95
2022-12-23T12:20:25.620Z,10.96
2022-12-23T12:23:02.651Z,11.01
2022-12-23T12:25:44.707Z,11.05
2022-12-23T12:28:23.275Z,11.06
2022-12-23T12:31:02.199Z,11.09
2022-12-23T12:33:38.304Z,11.12
2022-12-23T12:36:29.261Z,11.13
2022-12-23T12:38:58.742Z,11.18
2022-12-23T12:41:33.122Z,11.21
2022-12-23T12:44:24.601Z,11.23
2022-12-23T12:46:56.467Z,11.26
2022-12-23T12:49:35.670Z,11.26
2022-12-23T12:52:13.222Z,11.27
2022-12-23T12:54:57.602Z,11.30
2022-12-23T12:57:25.166Z,11.30
2022-12-23T13:00:03.605Z,11.29
2022-12-23T13:02:41.492Z,11.34
2022-12-23T13:05:33.802Z,11.33
2022-12-23T13:08:23.400Z,11.34
2022-12-23T13:10:57.604Z,11.33
2022-12-23T13:13:45.630Z,11.41
2022-12-23T13:16:27.551Z,11.41
2022-12-23T13:19:06.189Z,11.43
2022-12-23T13:21:58.482Z,11.43
2022-12-23T13:24:34.445Z,11.44
2022-12-23T13:27:33.724Z,11.43
2022-12-23T13:30:21.496Z,11.41
2022-12-23T13:32:57.630Z,11.47
2022-12-23T13:35:52.120Z,11.46
2022-12-23T13:38:36.356Z,11.47
2022-12-23T13:41:04.345Z,11.48
2022-12-23T13:43:42.933Z,11.51
2022-12-23T13:46:22.000Z,11.53
2022-12-23T13:48:53.849Z,11.56
2022-12-23T13:51:34.652Z,11.56
2022-12-23T13:54:39.692Z,11.61
2022-12-23T13:57:21.364Z,11.63
2022-12-23T14:00:22.064Z,11.61
2022-12-23T14:02:52.184Z,11.66
2022-12-23T14:05:42.239Z,11.68
2022-12-23T14:08:17.953Z,11.71
2022-12-23T14:11:11.117Z,11.68
2022-12-23T14:13:46.031Z,11.73
2022-12-23T14:16:34.964Z,11.71
2022-12-23T14:19:23.279Z,11.74
2022-12-23T14:21:59.281Z,11.76
2022-12-23T14:24:42.866Z,11.75
2022-12-23T14:27:35.800Z,11.78
2022-12-23T14:30:21.904Z,11.78
2022-12-23T14:33:00.122Z,11.80
2022-12-23T14:35:40.113Z,11.80
2022-12-23T14:38:15.203Z,11.85
2022-12-23T14:40:42.009Z,11.84
2022-12-23T14:43:25.904Z,11.88
2022-12-23T14:46:00.107Z,11.85
2022-12-23T14:48:41.624Z,11.85
2022-12-23T14:51:08.312Z,11.87
2022-12-23T14:53:57.456Z,11.91
2022-12-23T14:56:39.804Z,11.91
2022-12-23T14:59:12.393Z,11.95
2022-12-23T15:01:54.170Z,11.92
2022-12-23T15:04:29.901Z,11.95
2022-12-23T15:07:04.008Z,11.95
2022-12-23T15:09:35.676Z,11.94
2022-12-23T15:12:14.529Z,11.93
2022-12-23T15:14:52.503Z,11.95
2022-12-23T15:17:34.625Z,11.93
2022-12-23T15:20:10.515Z,12.00
2022-12-23T15:22:38.400Z,11.99
2022-12-23T15:25:22.814Z,11.97
2022-12-23T15:27:49.797Z,12.00
2022-12-23T15:30:17.705Z,12.02
2022-12-23T15:32:50.517Z,11.99
2022-12-23T15:35:23.758Z,12.01
2022-12-23T15:37:51.151Z,12.01
2022-12-23T15:40:25.276Z,12.01
2022-12-23T15:42:52.012Z,12.02
2022-12-23T15:45:39.585Z,12.01
2022-12-23T15:48:22.456Z,12.03
2022-12-23T15:50:53.335Z,12.02
2022-12-23T15:53:20.531Z,12.04
2022-12-23T15:55:49.176Z,12.10
2022-12-23T15:58:22.726Z,12.06
2022-12-23T16:00:58.017Z,12.08
2022-12-23T16:03:40.589Z,12.08
2022-12-23T16:06:25.909Z,12.11
2022-12-23T16:09:15.220Z,12.08
2022-12-23T16:11:56.308Z,12.14
2022-12-23T16:14:35.221Z,12.11
2022-12-23T16:17:13.899Z,12.07
2022-12-23T16:19:56.111Z,12.10
2022-12-23T16:22:26.818Z,12.07
2022-12-23T16:25:15.913Z,12.08
2022-12-23T16:27:47.373Z,12.08
2022-12-23T16:30:24.103Z,12.06
2022-12-23T16:32:52.343Z,12.08
2022-12-23T16:35:33.081Z,12.07
2022-12-23T16:38:12.788Z,12.07
2022-12-23T16:40:39.867Z,12.07
2022-12-23T16:43:07.860Z,12.05
2022-12-23T16:45:36.325Z,12.04
2022-12-23T16:48:11.496Z,12.09
2022-12-23T16:50:38.877Z,12.07
2022-12-23T16:53:06.074Z,12.07
2022-12-23T16:55:32.945Z,12.09
2022-12-23T16:58:00.418Z,12.10
2022-12-23T17:00:27.785Z,12.10
2022-12-23T17:02:54.945Z,12.07
2022-12-23T17:05:23.560Z,12.12
2022-12-23T17:07:50.519Z,12.11
2022-12-23T17:10:18.706Z,12.10
2022-12-23T17:12:46.896Z,12.11
2022-12-23T17:15:23.393Z,12.14
2022-12-23T17:17:52.463Z,12.12
2022-12-23T17:20:20.818Z,12.16
2022-12-23T17:22:53.716Z,12.14
2022-12-23T17:25:26.358Z,12.20
2022-12-23T17:27:53.718Z,12.22
2022-12-23T17:30:23.745Z,12.18
2022-12-23T17:33:00.187Z,12.20
2022-12-23T17:35:26.924Z,12.20
2022-12-23T17:37:53.407Z,12.21
2022-12-23T17:40:20.579Z,12.20
2022-12-23T17:42:48.166Z,12.22
2022-12-23T17:45:29.872Z,12.27
2022-12-23T17:47:56.833Z,12.25
2022-12-23T17:50:24.591Z,12.27
2022-12-23T17:52:52.591Z,12.30
2022-12-23T17:55:23.323Z,12.36
2022-12-23T17:57:50.785Z,12.36
2022-12-23T18:00:28.048Z,12.37
2022-12-23T18:03:00.759Z,12.39
2022-12-23T18:05:30.150Z,12.39
2022-12-23T18:07:58.539Z,12.40
2022-12-23T18:10:33.576Z,12.40
2022-12-23T18:13:02.694Z,12.37
2022-12-23T18:15:39.347Z,12.30
2022-12-23T18:18:24.607Z,12.31
2022-12-23T18:20:57.341Z,12.28
2022-12-23T18:23:32.733Z,12.28
2022-12-23T18:26:00.342Z,12.24
2022-12-23T18:28:27.568Z,12.23
2022-12-23T18:30:58.081Z,12.18
2022-12-23T18:33:28.620Z,12.30
2022-12-23T18:35:55.279Z,12.31
2022-12-23T18:38:21.732Z,12.30
2022-12-23T18:40:52.193Z,12.26
2022-12-23T18:43:20.817Z,12.22
2022-12-23T18:45:52.433Z,12.22
2022-12-23T18:48:19.953Z,12.23
2022-12-23T18:50:49.780Z,12.24
2022-12-23T18:53:23.928Z,12.20
2022-12-23T18:55:52.773Z,12.20
2022-12-23T18:58:20.551Z,12.15
2022-12-23T19:00:50.724Z,12.17
2022-12-23T19:03:27.299Z,12.13
2022-12-23T19:05:54.891Z,12.13
2022-12-23T19:08:26.641Z,12.09
2022-12-23T19:10:54.970Z,12.08
2022-12-23T19:13:22.324Z,12.08
2022-12-23T19:15:49.301Z,12.11
2022-12-23T19:18:17.629Z,12.08
2022-12-23T19:20:45.625Z,12.19
2022-12-23T19:23:13.220Z,12.26
2022-12-23T19:25:42.305Z,12.28
2022-12-23T19:28:09.577Z,12.28
2022-12-23T19:30:36.556Z,12.20
2022-12-23T19:33:03.373Z,12.20
2022-12-23T19:35:30.177Z,12.16
2022-12-23T19:37:56.948Z,12.17
2022-12-23T19:40:23.498Z,12.14
2022-12-23T19:42:50.429Z,12.14
2022-12-23T19:45:17.343Z,12.09
2022-12-23T19:47:44.052Z,12.08
2022-12-23T19:50:11.975Z,12.01
2022-12-23T19:52:39.126Z,11.98
2022-12-23T19:55:06.132Z,12.01
2022-12-23T19:57:33.451Z,12.08
2022-12-23T20:00:01.704Z,12.06
2022-12-23T20:02:39.135Z,12.06
2022-12-23T20:05:06.001Z,12.05
2022-12-23T20:07:32.543Z,11.99
2022-12-23T20:09:59.130Z,11.98
2022-12-23T20:12:28.133Z,11.97
2022-12-23T20:14:54.610Z,11.97
2022-12-23T20:17:21.167Z,11.95
2022-12-23T20:19:47.821Z,11.95
2022-12-23T20:22:14.369Z,11.93
2022-12-23T20:24:41.182Z,11.90
2022-12-23T20:27:11.885Z,11.89
2022-12-23T20:29:39.046Z,11.88
2022-12-23T20:32:06.094Z,11.90
2022-12-23T20:34:38.738Z,11.84
2022-12-23T20:37:06.408Z,11.78
2022-12-23T20:39:33.051Z,11.79
2022-12-23T20:41:59.453Z,11.77
2022-12-23T20:44:35.615Z,11.71
2022-12-23T20:47:05.305Z,11.67
2022-12-23T20:49:31.906Z,11.63
2022-12-23T20:51:58.908Z,11.63
2022-12-23T20:54:32.274Z,11.63
2022-12-23T20:57:01.295Z,11.60
2022-12-23T20:59:27.829Z,11.53
2022-12-23T21:01:54.833Z,11.57
2022-12-23T21:04:22.335Z,11.52
2022-12-23T21:06:49.194Z,11.46
2022-12-23T21:09:16.393Z,11.41
2022-12-23T21:11:45.722Z,11.38
2022-12-23T21:14:13.591Z,11.36
2022-12-23T21:16:40.983Z,11.38
2022-12-23T21:19:09.553Z,11.32
2022-12-23T21:21:36.344Z,11.36
2022-12-23T21:24:05.014Z,11.31
2022-12-23T21:26:33.524Z,11.32
2022-12-23T21:29:02.088Z,11.37
2022-12-23T21:31:30.605Z,11.46
2022-12-23T21:33:58.032Z,11.59
2022-12-23T21:36:32.921Z,11.53
2022-12-23T21:39:00.085Z,11.63
2022-12-23T21:41:29.584Z,11.63
2022-12-23T21:43:58.015Z,11.75
2022-12-23T21:46:25.740Z,11.85
2022-12-23T21:48:52.381Z,11.79
2022-12-23T21:51:38.968Z,11.69
2022-12-23T21:54:08.286Z,11.69
2022-12-23T21:56:35.453Z,11.65
2022-12-23T21:59:07.785Z,11.69
2022-12-23T22:01:35.239Z,11.58
2022-12-23T22:04:05.177Z,11.56
2022-12-23T22:06:37.506Z,11.61
2022-12-23T22:09:05.917Z,11.60
2022-12-23T22:11:35.122Z,11.53
2022-12-23T22:14:03.278Z,11.55
2022-12-23T22:16:30.882Z,11.59
2022-12-23T22:18:58.864Z,11.52
2022-12-23T22:21:28.241Z,11.50
2022-12-23T22:23:55.667Z,11.60
2022-12-23T22:26:26.197Z,11.52
2022-12-23T22:28:55.601Z,11.53
2022-12-23T22:31:31.290Z,11.44
2022-12-23T22:33:59.344Z,11.44
2022-12-23T22:36:26.362Z,11.38
2022-12-23T22:38:55.359Z,11.36
2022-12-23T22:41:23.033Z,11.46
2022-12-23T22:43:50.118Z,11.39
2022-12-23T22:46:18.259Z,11.39
2022-12-23T22:48:45.571Z,11.38
2022-12-23T22:51:15.950Z,11.36
2022-12-23T22:53:42.416Z,11.34
2022-12-23T22:56:11.773Z,11.39
2022-12-23T22:58:38.769Z,11.35
2022-12-23T23:01:06.342Z,11.29
2022-12-23T23:03:33.584Z,11.38
2022-12-23T23:06:04.272Z,11.39
2022-12-23T23:08:31.774Z,11.36
2022-12-23T23:11:00.137Z,11.30
2022-12-23T23:13:29.507Z,11.39
2022-12-23T23:15:56.875Z,11.40
2022-12-23T23:18:24.249Z,11.37
2022-12-23T23:20:51.562Z,11.31
2022-12-23T23:23:18.130Z,11.29
2022-12-23T23:25:45.246Z,11.30
2022-12-23T23:28:11.955Z,11.26
2022-12-23T23:30:39.010Z,11.23
2022-12-23T23:33:07.589Z,11.39
2022-12-23T23:35:35.567Z,11.26
2022-12-23T23:38:02.468Z,11.25
2022-12-23T23:40:29.381Z,11.27
2022-12-23T23:42:55.892Z,11.36
2022-12-23T23:45:22.628Z,11.28
2022-12-23T23:47:49.280Z,11.28
2022-12-23T23:50:15.901Z,11.30
2022-12-23T23:52:42.416Z,11.34
2022-12-23T23:55:09.208Z,11.34
2022-12-23T23:57:36.105Z,11.30
